createdAt,value
2023-03-06T00:02:57.855Z,97057.38
2023-03-06T00:06:00.345Z,97050.44
2023-03-06T00:09:02.467Z,97057.53
2023-03-06T00:12:04.697Z,97048.28
2023-03-06T00:15:07.431Z,97056.81
2023-03-06T00:18:09.509Z,97059.03
2023-03-06T00:21:11.507Z,97051.94
2023-03-06T00:24:13.539Z,97048.44
2023-03-06T00:27:15.461Z,97021.66
2023-03-06T00:30:23.535Z,97030.59
2023-03-06T00:33:25.468Z,97042.50
2023-03-06T00:36:29.113Z,97043.06
2023-03-06T00:39:31.064Z,97029.47
2023-03-06T00:42:32.989Z,97038.91
2023-03-06T00:45:35.073Z,97034.84
2023-03-06T00:48:37.294Z,97011.53
2023-03-06T00:51:39.265Z,97033.66
2023-03-06T00:54:41.558Z,96951.31
2023-03-06T00:57:43.556Z,97028.78
2023-03-06T01:00:46.219Z,97030.81
2023-03-06T01:03:48.273Z,97022.53
2023-03-06T01:06:50.493Z,97023.72
2023-03-06T01:09:52.490Z,97021.50
2023-03-06T01:12:55.466Z,97018.47
2023-03-06T01:16:08.433Z,97011.53
2023-03-06T01:19:10.966Z,96997.75
2023-03-06T01:22:14.240Z,96993.06
2023-03-06T01:25:16.192Z,96993.50
2023-03-06T01:28:18.150Z,96990.91
2023-03-06T01:31:20.172Z,96990.88
2023-03-06T01:34:22.116Z,96986.66
2023-03-06T01:37:24.117Z,96985.63
2023-03-06T01:40:26.215Z,96983.81
2023-03-06T01:43:32.359Z,96979.94
2023-03-06T01:46:34.256Z,96981.16
2023-03-06T01:49:41.920Z,96976.03
2023-03-06T01:52:52.316Z,96927.28
2023-03-06T01:55:55.165Z,96974.28
2023-03-06T01:58:58.757Z,96975.06
2023-03-06T02:02:03.304Z,96975.53
2023-03-06T02:05:08.786Z,96971.84
2023-03-06T02:08:13.388Z,96960.03
2023-03-06T02:11:19.720Z,96967.28
2023-03-06T02:14:23.129Z,96956.34
2023-03-06T02:17:25.701Z,96965.63
2023-03-06T02:20:48.912Z,96965.44
2023-03-06T02:23:56.908Z,96963.84
2023-03-06T02:27:01.217Z,96951.38
2023-03-06T02:30:08.555Z,96940.06
2023-03-06T02:33:16.370Z,96922.94
2023-03-06T02:36:18.366Z,96945.09
2023-03-06T02:39:23.887Z,96947.13
2023-03-06T02:42:29.080Z,96947.72
2023-03-06T02:45:36.382Z,96935.34
2023-03-06T02:48:38.380Z,96933.16
2023-03-06T02:51:40.331Z,96926.72
2023-03-06T02:54:42.835Z,96928.75
2023-03-06T02:57:44.886Z,96890.06
2023-03-06T03:00:51.416Z,96924.28
2023-03-06T03:03:54.878Z,96924.09
2023-03-06T03:06:56.946Z,96896.91
2023-03-06T03:10:00.322Z,96922.41
2023-03-06T03:13:02.766Z,96923.63
2023-03-06T03:16:11.223Z,96911.72
2023-03-06T03:19:13.437Z,96915.41
2023-03-06T03:22:15.601Z,96905.44
2023-03-06T03:25:20.994Z,96911.34
2023-03-06T03:28:23.658Z,96910.03
2023-03-06T03:31:26.164Z,96905.22
2023-03-06T03:34:28.703Z,96859.66
2023-03-06T03:37:30.940Z,96897.97
2023-03-06T03:40:33.559Z,96898.59
2023-03-06T03:43:36.158Z,96842.44
2023-03-06T03:46:38.767Z,96895.50
2023-03-06T03:49:45.688Z,96891.31
2023-03-06T03:52:47.925Z,96888.13
2023-03-06T03:55:50.000Z,96881.09
2023-03-06T03:58:54.774Z,96885.53
2023-03-06T04:01:57.802Z,96884.53
2023-03-06T04:05:00.306Z,96899.09
2023-03-06T04:08:03.418Z,96882.53
2023-03-06T04:11:06.932Z,96881.97
2023-03-06T04:14:09.967Z,96882.97
2023-03-06T04:17:12.414Z,96880.41
2023-03-06T04:20:14.785Z,96877.75
2023-03-06T04:23:18.350Z,96879.78
2023-03-06T04:26:21.002Z,96878.19
2023-03-06T04:29:23.383Z,96882.00
2023-03-06T04:32:25.691Z,96865.25
2023-03-06T04:35:27.954Z,96867.06
2023-03-06T04:38:35.577Z,96862.06
2023-03-06T04:41:40.743Z,96866.50
2023-03-06T04:44:42.854Z,96858.63
2023-03-06T04:47:44.924Z,96855.59
2023-03-06T04:50:46.938Z,96855.97
2023-03-06T04:53:48.930Z,96861.63
2023-03-06T04:56:50.967Z,96857.41
2023-03-06T04:59:53.111Z,96847.13
2023-03-06T05:02:55.220Z,96838.84
2023-03-06T05:05:57.527Z,96839.63
2023-03-06T05:08:59.496Z,96833.97
2023-03-06T05:12:01.573Z,96805.38
2023-03-06T05:15:05.045Z,96832.78
2023-03-06T05:18:07.108Z,96793.25
2023-03-06T05:21:09.611Z,96831.78
2023-03-06T05:24:11.558Z,96828.53
2023-03-06T05:27:16.529Z,96824.31
2023-03-06T05:30:21.400Z,96823.09
2023-03-06T05:33:23.503Z,96829.75
2023-03-06T05:36:25.497Z,96811.41
2023-03-06T05:39:30.498Z,96832.78
2023-03-06T05:42:32.538Z,96782.78
2023-03-06T05:45:35.578Z,96831.56
2023-03-06T05:48:37.895Z,96823.28
2023-03-06T05:51:39.855Z,96825.50
2023-03-06T05:54:41.865Z,96833.56
2023-03-06T05:57:43.848Z,96824.28
2023-03-06T06:00:45.826Z,96836.16
2023-03-06T06:03:47.896Z,96793.59
2023-03-06T06:06:55.649Z,96791.59
2023-03-06T06:09:57.662Z,96836.50
2023-03-06T06:12:59.684Z,96830.84
2023-03-06T06:16:07.583Z,96832.66
2023-03-06T06:19:09.598Z,96828.59
2023-03-06T06:22:12.102Z,96821.91
2023-03-06T06:25:15.065Z,96804.78
2023-03-06T06:28:17.116Z,96832.78
2023-03-06T06:31:19.111Z,96809.97
2023-03-06T06:34:22.575Z,96830.91
2023-03-06T06:37:26.155Z,96829.47
2023-03-06T06:40:29.777Z,96830.66
2023-03-06T06:43:31.813Z,96826.59
2023-03-06T06:47:18.270Z,96821.91
2023-03-06T06:49:57.573Z,96822.88
2023-03-06T06:52:59.546Z,96820.00
2023-03-06T06:56:01.573Z,96818.34
2023-03-06T06:59:16.206Z,96812.22
2023-03-06T07:02:18.907Z,96806.09
2023-03-06T07:05:22.096Z,96819.78
2023-03-06T07:08:24.155Z,96811.56
2023-03-06T07:11:26.093Z,96813.03
2023-03-06T07:14:28.152Z,96811.31
2023-03-06T07:17:30.302Z,96817.31
2023-03-06T07:20:32.361Z,96803.81
2023-03-06T07:23:34.342Z,96809.31
2023-03-06T07:26:36.461Z,96808.34
2023-03-06T07:29:38.588Z,96800.16
2023-03-06T07:32:40.691Z,96804.38
2023-03-06T07:35:43.638Z,96806.53
2023-03-06T07:38:45.950Z,96810.16
2023-03-06T07:41:47.949Z,96811.72
2023-03-06T07:44:49.998Z,96808.28
2023-03-06T07:47:52.906Z,96801.97
2023-03-06T07:50:57.156Z,96802.78
2023-03-06T07:53:59.236Z,96808.38
2023-03-06T07:57:01.299Z,96777.03
2023-03-06T08:00:05.169Z,96799.81
2023-03-06T08:03:15.632Z,96796.22
2023-03-06T08:06:21.255Z,96801.06
2023-03-06T08:09:23.561Z,96785.59
2023-03-06T08:12:25.558Z,96803.50
2023-03-06T08:15:27.669Z,96792.59
2023-03-06T08:18:29.967Z,96802.69
2023-03-06T08:21:31.898Z,96809.25
2023-03-06T08:24:34.771Z,96807.41
2023-03-06T08:27:36.904Z,96798.38
2023-03-06T08:30:38.960Z,96798.09
2023-03-06T08:33:41.318Z,96789.50
2023-03-06T08:36:43.613Z,96787.44
2023-03-06T08:39:45.849Z,96785.59
2023-03-06T08:42:48.646Z,96786.66
2023-03-06T08:45:54.858Z,96781.03
2023-03-06T08:48:57.486Z,96783.53
2023-03-06T08:51:59.572Z,96783.19
2023-03-06T08:55:03.730Z,96741.28
2023-03-06T08:58:06.163Z,96773.72
2023-03-06T09:01:20.302Z,96775.88
2023-03-06T09:04:22.282Z,96775.66
2023-03-06T09:07:24.341Z,96773.38
2023-03-06T09:10:27.019Z,96773.38
2023-03-06T09:13:29.124Z,96777.50
2023-03-06T09:16:31.799Z,96713.69
2023-03-06T09:19:33.802Z,96762.53
2023-03-06T09:22:36.000Z,96728.38
2023-03-06T09:25:37.993Z,96760.31
2023-03-06T09:28:41.211Z,96759.25
2023-03-06T09:31:43.473Z,96762.81
2023-03-06T09:34:45.478Z,96764.25
2023-03-06T09:37:47.469Z,96759.75
2023-03-06T09:40:58.513Z,96755.28
2023-03-06T09:44:05.151Z,96745.16
2023-03-06T09:47:31.922Z,96778.16
2023-03-06T09:50:54.250Z,96756.81
2023-03-06T09:54:05.402Z,96715.25
2023-03-06T09:57:19.812Z,96760.00
2023-03-06T10:00:30.927Z,96715.88
2023-03-06T10:03:54.480Z,96759.13
2023-03-06T10:07:06.678Z,96762.41
2023-03-06T10:10:18.505Z,96756.81
2023-03-06T10:13:28.818Z,96751.41
2023-03-06T10:16:33.214Z,96749.59
2023-03-06T10:19:40.173Z,96756.16
2023-03-06T10:23:00.688Z,96748.84
2023-03-06T10:26:19.887Z,96743.31
2023-03-06T10:29:56.419Z,96737.13
2023-03-06T10:33:15.786Z,96742.06
2023-03-06T10:36:19.694Z,96706.31
2023-03-06T10:39:23.417Z,96735.00
2023-03-06T10:42:26.608Z,96733.72
2023-03-06T10:45:37.747Z,96724.47
2023-03-06T10:48:58.333Z,96721.44
2023-03-06T10:52:09.401Z,96713.06
2023-03-06T10:55:30.716Z,96701.44
2023-03-06T10:58:32.979Z,96704.19
2023-03-06T11:01:35.808Z,96706.16
2023-03-06T11:04:39.495Z,96695.38
2023-03-06T11:07:55.167Z,96693.38
2023-03-06T11:11:02.231Z,96682.19
2023-03-06T11:14:23.098Z,96682.22
2023-03-06T11:17:32.231Z,96679.66
2023-03-06T11:20:53.452Z,96677.97
2023-03-06T11:24:01.861Z,96668.31
2023-03-06T11:27:22.386Z,96666.50
2023-03-06T11:30:30.558Z,96664.19
2023-03-06T11:33:42.737Z,96623.72
2023-03-06T11:37:10.670Z,96652.09
2023-03-06T11:40:12.636Z,96649.16
2023-03-06T11:44:01.176Z,96645.78
2023-03-06T11:47:17.010Z,96634.50
2023-03-06T11:50:27.712Z,96638.00
2023-03-06T11:53:39.171Z,96633.22
2023-03-06T11:56:48.494Z,96624.91
2023-03-06T11:59:53.217Z,96622.81
2023-03-06T12:03:34.661Z,96606.84
2023-03-06T12:07:10.260Z,96612.50
2023-03-06T12:10:51.924Z,96614.75
2023-03-06T12:13:54.343Z,96607.53
2023-03-06T12:17:25.555Z,96607.09
2023-03-06T12:21:05.290Z,96596.28
2023-03-06T12:24:29.911Z,96594.16
2023-03-06T12:28:06.033Z,96595.25
2023-03-06T12:31:42.070Z,96586.69
2023-03-06T12:35:06.143Z,96588.56
2023-03-06T12:38:32.688Z,96583.31
2023-03-06T12:41:49.667Z,96583.13
2023-03-06T12:45:21.361Z,96571.16
2023-03-06T12:48:28.275Z,96565.59
2023-03-06T12:51:31.565Z,96562.13
2023-03-06T12:54:37.765Z,96565.25
2023-03-06T12:57:40.641Z,96566.59
2023-03-06T13:01:08.725Z,96568.19
2023-03-06T13:04:31.900Z,96552.03
2023-03-06T13:07:34.022Z,96549.97
2023-03-06T13:10:38.504Z,96539.53
2023-03-06T13:13:46.561Z,96553.97
2023-03-06T13:16:48.568Z,96555.31
2023-03-06T13:20:16.447Z,96549.19
2023-03-06T13:23:33.480Z,96552.63
2023-03-06T13:26:35.551Z,96551.78
2023-03-06T13:29:37.550Z,96558.13
2023-03-06T13:32:39.546Z,96563.41
2023-03-06T13:35:41.662Z,96551.13
2023-03-06T13:38:43.685Z,96545.78
2023-03-06T13:41:59.364Z,96550.28
2023-03-06T13:45:16.743Z,96557.47
2023-03-06T13:48:47.845Z,96550.78
2023-03-06T13:51:52.655Z,96542.03
2023-03-06T13:55:19.552Z,96537.44
2023-03-06T13:58:40.465Z,96540.38
2023-03-06T14:01:50.353Z,96513.00
2023-03-06T14:04:55.106Z,96496.47
2023-03-06T14:08:17.807Z,96544.69
2023-03-06T14:11:21.702Z,96542.88
2023-03-06T14:14:39.606Z,96543.41
2023-03-06T14:17:53.301Z,96532.50
2023-03-06T14:20:59.605Z,96535.63
2023-03-06T14:24:04.742Z,96541.00
2023-03-06T14:27:07.170Z,96504.69
2023-03-06T14:30:14.077Z,96536.31
2023-03-06T14:33:32.539Z,96535.03
2023-03-06T14:36:42.433Z,96552.94
2023-03-06T14:39:45.767Z,96554.16
2023-03-06T14:42:47.827Z,96551.19
2023-03-06T14:45:51.184Z,96542.38
2023-03-06T14:48:53.129Z,96550.34
2023-03-06T14:52:00.718Z,96553.84
2023-03-06T14:55:03.150Z,96553.28
2023-03-06T14:58:33.992Z,96562.28
2023-03-06T15:01:40.876Z,96556.69
2023-03-06T15:04:47.827Z,96558.78
2023-03-06T15:07:52.362Z,96547.28
2023-03-06T15:11:00.406Z,96559.19
2023-03-06T15:14:03.877Z,96578.13
2023-03-06T15:17:18.858Z,96569.69
2023-03-06T15:20:37.780Z,96561.91
2023-03-06T15:23:42.566Z,96564.28
2023-03-06T15:26:54.135Z,96556.34
2023-03-06T15:30:21.510Z,96560.44
2023-03-06T15:33:26.633Z,96558.03
2023-03-06T15:36:32.057Z,96520.22
2023-03-06T15:39:41.361Z,96557.59
2023-03-06T15:42:43.583Z,96563.88
2023-03-06T15:45:45.590Z,96558.56
2023-03-06T15:48:56.452Z,96557.97
2023-03-06T15:51:58.623Z,96556.38
2023-03-06T15:55:00.937Z,96553.63
2023-03-06T15:58:04.884Z,96550.78
2023-03-06T16:01:08.314Z,96554.22
2023-03-06T16:04:10.421Z,96538.47
2023-03-06T16:07:13.637Z,96537.69
2023-03-06T16:10:28.146Z,96553.78
2023-03-06T16:13:30.702Z,96549.50
2023-03-06T16:16:38.207Z,96552.19
2023-03-06T16:19:41.226Z,96546.59
2023-03-06T16:22:45.143Z,96557.88
2023-03-06T16:25:49.337Z,96557.19
2023-03-06T16:28:51.694Z,96562.44
2023-03-06T16:31:55.552Z,96557.06
2023-03-06T16:34:58.062Z,96551.78
2023-03-06T16:38:00.626Z,96538.94
2023-03-06T16:41:02.991Z,96550.84
2023-03-06T16:44:08.836Z,96551.78
2023-03-06T16:47:12.633Z,96553.25
2023-03-06T16:50:30.329Z,96572.44
2023-03-06T16:53:32.495Z,96563.47
2023-03-06T16:56:35.244Z,96558.59
2023-03-06T16:59:37.415Z,96533.69
2023-03-06T17:02:41.839Z,96558.69
2023-03-06T17:05:44.756Z,96527.78
2023-03-06T17:08:48.704Z,96558.69
2023-03-06T17:11:51.024Z,96557.72
2023-03-06T17:14:53.917Z,96562.22
2023-03-06T17:17:58.095Z,96568.50
2023-03-06T17:21:01.134Z,96572.63
2023-03-06T17:24:04.071Z,96570.56
2023-03-06T17:27:06.432Z,96581.06
2023-03-06T17:30:10.376Z,96589.38
2023-03-06T17:33:12.921Z,96588.72
2023-03-06T17:36:16.490Z,96597.22
2023-03-06T17:39:20.385Z,96601.34
2023-03-06T17:42:22.670Z,96607.63
2023-03-06T17:45:25.294Z,96607.50
2023-03-06T17:48:27.791Z,96607.47
2023-03-06T17:51:30.734Z,96605.16
2023-03-06T17:54:36.735Z,96613.25
2023-03-06T17:57:39.203Z,96619.16
2023-03-06T18:00:42.708Z,96609.28
2023-03-06T18:03:48.029Z,96616.16
2023-03-06T18:06:51.910Z,96560.22
2023-03-06T18:09:54.561Z,96625.66
2023-03-06T18:12:57.617Z,96613.41
2023-03-06T18:16:01.852Z,96586.00
2023-03-06T18:19:05.051Z,96620.34
2023-03-06T18:22:08.422Z,96616.88
2023-03-06T18:25:11.453Z,96616.88
2023-03-06T18:28:14.120Z,96618.47
2023-03-06T18:31:28.735Z,96623.88
2023-03-06T18:34:31.855Z,96621.00
2023-03-06T18:37:34.901Z,96614.72
2023-03-06T18:40:37.564Z,96619.19
2023-03-06T18:43:41.484Z,96622.47
2023-03-06T18:46:46.994Z,96625.72
2023-03-06T18:49:49.905Z,96617.81
2023-03-06T18:52:54.464Z,96621.59
2023-03-06T18:56:00.828Z,96618.09
2023-03-06T18:59:06.660Z,96622.91
2023-03-06T19:02:11.443Z,96602.59
2023-03-06T19:05:14.317Z,96605.97
2023-03-06T19:08:18.951Z,96594.72
2023-03-06T19:11:22.237Z,96626.56
2023-03-06T19:14:24.823Z,96619.69
2023-03-06T19:17:28.581Z,96623.13
2023-03-06T19:20:33.047Z,96632.06
2023-03-06T19:23:36.411Z,96629.03
2023-03-06T19:26:40.681Z,96618.22
2023-03-06T19:29:43.865Z,96627.31
2023-03-06T19:32:47.444Z,96623.50
2023-03-06T19:35:50.822Z,96625.97
2023-03-06T19:38:58.017Z,96634.91
2023-03-06T19:42:01.791Z,96594.06
2023-03-06T19:45:05.872Z,96632.41
2023-03-06T19:48:10.366Z,96633.22
2023-03-06T19:51:14.852Z,96630.44
2023-03-06T19:54:18.033Z,96640.16
2023-03-06T19:57:22.250Z,96648.72
2023-03-06T20:00:25.524Z,96642.56
2023-03-06T20:03:29.280Z,96630.44
2023-03-06T20:06:34.322Z,96637.09
2023-03-06T20:09:37.148Z,96646.28
2023-03-06T20:12:40.259Z,96636.88
2023-03-06T20:15:43.112Z,96645.81
2023-03-06T20:18:47.910Z,96625.94
2023-03-06T20:21:52.220Z,96648.63
2023-03-06T20:24:55.404Z,96631.03
2023-03-06T20:27:58.370Z,96645.63
2023-03-06T20:31:14.620Z,96643.53
2023-03-06T20:34:20.654Z,96644.31
2023-03-06T20:37:23.838Z,96646.47
2023-03-06T20:40:27.781Z,96652.25
2023-03-06T20:43:30.950Z,96646.53
2023-03-06T20:46:34.889Z,96637.44
2023-03-06T20:49:38.998Z,96651.56
2023-03-06T20:52:41.932Z,96626.31
2023-03-06T20:55:44.906Z,96644.59
2023-03-06T20:58:48.087Z,96655.94
2023-03-06T21:01:50.596Z,96651.41
2023-03-06T21:04:53.181Z,96660.47
2023-03-06T21:07:57.814Z,96660.03
2023-03-06T21:11:00.065Z,96666.41
2023-03-06T21:14:02.353Z,96671.41
2023-03-06T21:17:04.464Z,96657.16
2023-03-06T21:20:07.666Z,96652.72
2023-03-06T21:23:10.375Z,96659.72
2023-03-06T21:26:14.043Z,96650.38
2023-03-06T21:29:16.405Z,96621.56
2023-03-06T21:32:18.583Z,96669.22
2023-03-06T21:35:20.979Z,96678.34
2023-03-06T21:38:23.123Z,96676.41
2023-03-06T21:41:30.645Z,96682.41
2023-03-06T21:44:32.722Z,96665.22
2023-03-06T21:47:39.030Z,96677.59
2023-03-06T21:50:41.756Z,96683.66
2023-03-06T21:53:44.380Z,96674.66
2023-03-06T21:56:46.441Z,96679.31
2023-03-06T21:59:48.491Z,96679.56
2023-03-06T22:02:50.883Z,96662.41
2023-03-06T22:05:52.985Z,96665.50
2023-03-06T22:08:56.164Z,96670.22
2023-03-06T22:11:58.454Z,96665.88
2023-03-06T22:15:00.475Z,96662.22
2023-03-06T22:18:02.507Z,96662.41
2023-03-06T22:21:09.056Z,96661.28
2023-03-06T22:24:11.042Z,96647.47
2023-03-06T22:27:12.990Z,96649.59
2023-03-06T22:30:15.194Z,96651.06
2023-03-06T22:33:17.152Z,96623.06
2023-03-06T22:36:19.973Z,96655.41
2023-03-06T22:39:21.934Z,96657.09
2023-03-06T22:42:23.891Z,96657.84
2023-03-06T22:45:25.889Z,96648.50
2023-03-06T22:48:27.994Z,96659.31
2023-03-06T22:51:30.217Z,96654.53
2023-03-06T22:54:32.403Z,96653.50
2023-03-06T22:57:34.336Z,96651.56
2023-03-06T23:00:36.350Z,96650.78
2023-03-06T23:03:40.124Z,96649.66
2023-03-06T23:06:43.406Z,96644.72
2023-03-06T23:09:45.507Z,96645.19
2023-03-06T23:13:06.033Z,96638.78
2023-03-06T23:16:27.050Z,96642.88
2023-03-06T23:19:49.394Z,96634.03
2023-03-06T23:23:10.862Z,96656.91
2023-03-06T23:26:17.107Z,96634.22
2023-03-06T23:29:19.050Z,96621.94
2023-03-06T23:32:21.228Z,96645.69
2023-03-06T23:35:23.272Z,96655.41
2023-03-06T23:38:25.257Z,96613.16
2023-03-06T23:41:27.377Z,96623.38
2023-03-06T23:44:29.393Z,96623.88
2023-03-06T23:47:32.931Z,96652.66
2023-03-06T23:50:34.931Z,96649.09
2023-03-06T23:53:36.885Z,96657.66
2023-03-06T23:56:39.503Z,96658.41
2023-03-06T23:59:45.581Z,96610.44
